createdAt,value
2022-09-22T00:00:11.774Z,81.21
2022-09-22T00:01:11.887Z,81.21
2022-09-22T00:02:11.804Z,81.21
2022-09-22T00:03:11.748Z,81.30
2022-09-22T00:04:11.719Z,81.30
2022-09-22T00:05:11.728Z,81.41
2022-09-22T00:06:11.707Z,81.30
2022-09-22T00:07:11.706Z,81.30
2022-09-22T00:08:11.706Z,81.30
2022-09-22T00:09:11.675Z,81.41
2022-09-22T00:10:11.846Z,81.30
2022-09-22T00:11:11.688Z,81.30
2022-09-22T00:12:11.664Z,81.30
2022-09-22T00:13:11.612Z,81.35
2022-09-22T00:14:11.645Z,81.30
2022-09-22T00:15:11.606Z,81.41
2022-09-22T00:16:12.250Z,81.41
2022-09-22T00:17:11.631Z,81.41
2022-09-22T00:18:11.628Z,81.30
2022-09-22T00:19:11.569Z,81.35
2022-09-22T00:20:11.570Z,81.41
2022-09-22T00:21:11.566Z,81.30
2022-09-22T00:22:11.565Z,81.30
2022-09-22T00:23:11.534Z,81.30
2022-09-22T00:24:11.546Z,81.45
2022-09-22T00:25:11.511Z,81.41
2022-09-22T00:26:11.474Z,81.41
2022-09-22T00:27:11.483Z,81.41
2022-09-22T00:28:11.474Z,81.45
2022-09-22T00:29:11.662Z,81.45
2022-09-22T00:30:11.421Z,81.45
2022-09-22T00:31:11.527Z,81.45
2022-09-22T00:32:11.419Z,81.45
2022-09-22T00:33:11.428Z,81.51
2022-09-22T00:34:11.386Z,81.55
2022-09-22T00:35:11.392Z,81.41
2022-09-22T00:36:11.386Z,81.51
2022-09-22T00:37:11.397Z,81.45
2022-09-22T00:38:11.352Z,81.41
2022-09-22T00:39:11.519Z,81.35
2022-09-22T00:40:11.398Z,81.45
2022-09-22T00:41:11.308Z,81.41
2022-09-22T00:42:11.309Z,81.55
2022-09-22T00:43:11.312Z,81.45
2022-09-22T00:44:11.293Z,81.35
2022-09-22T00:45:11.286Z,81.35
2022-09-22T00:46:11.291Z,81.35
2022-09-22T00:47:11.307Z,81.30
2022-09-22T00:48:11.253Z,81.45
2022-09-22T00:49:11.225Z,81.45
2022-09-22T00:50:11.234Z,81.45
2022-09-22T00:51:11.196Z,81.45
2022-09-22T00:52:11.187Z,81.45
2022-09-22T00:53:11.187Z,81.45
2022-09-22T00:54:11.164Z,81.45
2022-09-22T00:55:11.166Z,81.45
2022-09-22T00:56:11.181Z,81.45
2022-09-22T00:57:11.129Z,81.45
2022-09-22T00:58:11.126Z,81.45
2022-09-22T00:59:11.124Z,81.45
2022-09-22T01:00:11.141Z,81.45
2022-09-22T01:01:11.152Z,81.35
2022-09-22T01:02:11.135Z,81.35
2022-09-22T01:03:11.089Z,81.35
2022-09-22T01:04:11.089Z,81.35
2022-09-22T01:05:11.060Z,81.35
2022-09-22T01:06:11.069Z,81.35
2022-09-22T01:07:11.040Z,81.35
2022-09-22T01:08:11.032Z,81.35
2022-09-22T01:09:11.019Z,81.35
2022-09-22T01:10:10.986Z,81.35
2022-09-22T01:11:10.992Z,81.35
2022-09-22T01:12:10.979Z,81.35
2022-09-22T01:13:11.009Z,81.35
2022-09-22T01:14:10.956Z,81.35
2022-09-22T01:15:10.947Z,81.35
2022-09-22T01:16:10.970Z,81.35
2022-09-22T01:17:10.944Z,81.35
2022-09-22T01:18:10.938Z,81.35
2022-09-22T01:19:10.917Z,81.24
2022-09-22T01:20:10.891Z,81.35
2022-09-22T01:21:10.880Z,81.35
2022-09-22T01:22:10.868Z,81.35
2022-09-22T01:23:10.877Z,81.35
2022-09-22T01:24:10.872Z,81.24
2022-09-22T01:25:10.864Z,81.24
2022-09-22T01:26:10.818Z,81.24
2022-09-22T01:27:10.817Z,81.24
2022-09-22T01:28:10.817Z,81.35
2022-09-22T01:29:10.802Z,81.35
2022-09-22T01:30:10.811Z,81.35
2022-09-22T01:31:10.844Z,81.35
2022-09-22T01:32:10.757Z,81.35
2022-09-22T01:33:10.810Z,81.35
2022-09-22T01:34:10.740Z,81.35
2022-09-22T01:35:10.723Z,81.35
2022-09-22T01:36:10.739Z,81.35
2022-09-22T01:37:10.696Z,81.35
2022-09-22T01:38:10.682Z,81.35
2022-09-22T01:39:10.698Z,81.35
2022-09-22T01:40:10.719Z,81.35
2022-09-22T01:41:10.643Z,81.35
2022-09-22T01:42:10.644Z,81.35
2022-09-22T01:43:10.650Z,81.35
2022-09-22T01:44:10.613Z,81.35
2022-09-22T01:45:10.618Z,81.35
2022-09-22T01:46:10.728Z,81.35
2022-09-22T01:47:10.584Z,81.35
2022-09-22T01:48:10.582Z,81.35
2022-09-22T01:49:10.602Z,81.35
2022-09-22T01:50:10.557Z,81.35
2022-09-22T01:51:10.532Z,81.45
2022-09-22T01:52:10.536Z,81.35
2022-09-22T01:53:10.569Z,81.35
2022-09-22T01:54:10.512Z,81.35
2022-09-22T01:55:10.504Z,81.35
2022-09-22T01:56:10.487Z,81.35
2022-09-22T01:57:10.474Z,81.35
2022-09-22T01:58:10.494Z,81.35
2022-09-22T01:59:10.581Z,81.35
2022-09-22T02:00:10.464Z,81.35
2022-09-22T02:01:14.466Z,81.35
2022-09-22T02:02:10.510Z,81.35
2022-09-22T02:03:10.423Z,81.45
2022-09-22T02:04:10.425Z,81.45
2022-09-22T02:05:10.394Z,81.45
2022-09-22T02:06:10.370Z,81.45
2022-09-22T02:07:10.360Z,81.45
2022-09-22T02:08:10.341Z,81.45
2022-09-22T02:09:10.389Z,81.45
2022-09-22T02:10:10.349Z,81.45
2022-09-22T02:11:10.338Z,81.45
2022-09-22T02:12:10.353Z,81.45
2022-09-22T02:13:10.312Z,81.45
2022-09-22T02:14:10.308Z,81.45
2022-09-22T02:15:10.279Z,81.45
2022-09-22T02:16:10.341Z,81.45
2022-09-22T02:17:10.254Z,81.45
2022-09-22T02:18:10.229Z,81.45
2022-09-22T02:19:13.412Z,81.45
2022-09-22T02:20:10.209Z,81.55
2022-09-22T02:21:10.218Z,81.55
2022-09-22T02:22:10.199Z,81.55
2022-09-22T02:23:10.192Z,81.55
2022-09-22T02:24:10.183Z,81.65
2022-09-22T02:25:10.177Z,81.65
2022-09-22T02:26:10.148Z,81.65
2022-09-22T02:27:10.135Z,81.65
2022-09-22T02:28:10.161Z,81.65
2022-09-22T02:29:10.128Z,81.65
2022-09-22T02:30:10.121Z,81.65
2022-09-22T02:31:20.047Z,81.65
2022-09-22T02:32:11.142Z,81.65
2022-09-22T02:33:10.133Z,81.65
2022-09-22T02:34:10.065Z,81.65
2022-09-22T02:35:10.089Z,81.75
2022-09-22T02:36:10.060Z,81.75
2022-09-22T02:37:10.055Z,81.85
2022-09-22T02:38:10.024Z,81.85
2022-09-22T02:39:10.074Z,81.85
2022-09-22T02:40:10.085Z,81.85
2022-09-22T02:41:09.990Z,81.85
2022-09-22T02:42:09.975Z,81.85
2022-09-22T02:43:09.962Z,81.95
2022-09-22T02:44:09.942Z,81.95
2022-09-22T02:45:09.931Z,81.95
2022-09-22T02:46:09.994Z,81.95
2022-09-22T02:47:09.929Z,82.05
2022-09-22T02:48:09.916Z,82.05
2022-09-22T02:49:09.893Z,82.05
2022-09-22T02:50:09.922Z,82.05
2022-09-22T02:51:09.889Z,82.05
2022-09-22T02:52:09.870Z,82.05
2022-09-22T02:53:09.858Z,82.05
2022-09-22T02:54:09.826Z,82.15
2022-09-22T02:55:09.849Z,82.15
2022-09-22T02:56:09.805Z,82.15
2022-09-22T02:57:09.832Z,82.15
2022-09-22T02:58:09.828Z,82.25
2022-09-22T02:59:10.005Z,82.25
2022-09-22T03:00:09.772Z,82.25
2022-09-22T03:01:09.827Z,82.35
2022-09-22T03:02:09.759Z,82.35
2022-09-22T03:03:09.857Z,82.35
2022-09-22T03:04:09.716Z,82.35
2022-09-22T03:05:09.755Z,82.35
2022-09-22T03:06:09.687Z,82.35
2022-09-22T03:07:09.694Z,82.35
2022-09-22T03:08:09.676Z,82.45
2022-09-22T03:09:09.665Z,82.45
2022-09-22T03:10:09.672Z,82.35
2022-09-22T03:11:09.660Z,82.45
2022-09-22T03:12:09.613Z,82.45
2022-09-22T03:13:16.341Z,82.56
2022-09-22T03:14:10.606Z,82.56
2022-09-22T03:15:16.624Z,82.56
2022-09-22T03:16:09.626Z,82.56
2022-09-22T03:17:12.274Z,82.56
2022-09-22T03:18:12.277Z,82.56
2022-09-22T03:19:09.568Z,82.56
2022-09-22T03:20:09.568Z,82.65
2022-09-22T03:21:09.580Z,82.56
2022-09-22T03:22:09.557Z,82.56
2022-09-22T03:23:09.524Z,82.56
2022-09-22T03:24:11.346Z,82.56
2022-09-22T03:25:11.154Z,82.56
2022-09-22T03:26:10.861Z,82.65
2022-09-22T03:27:10.985Z,82.65
2022-09-22T03:28:10.531Z,82.65
2022-09-22T03:29:15.346Z,82.65
2022-09-22T03:30:10.031Z,82.65
2022-09-22T03:31:09.939Z,82.65
2022-09-22T03:32:09.447Z,82.76
2022-09-22T03:33:09.418Z,82.76
2022-09-22T03:34:09.419Z,82.76
2022-09-22T03:35:09.404Z,82.76
2022-09-22T03:36:09.369Z,82.76
2022-09-22T03:37:09.361Z,82.76
2022-09-22T03:38:09.362Z,82.76
2022-09-22T03:39:09.339Z,82.76
2022-09-22T03:40:09.393Z,82.76
2022-09-22T03:41:09.355Z,82.76
2022-09-22T03:42:09.297Z,82.76
2022-09-22T03:43:13.045Z,82.76
2022-09-22T03:44:10.281Z,82.76
2022-09-22T03:45:09.295Z,82.76
2022-09-22T03:46:09.455Z,82.76
2022-09-22T03:47:09.281Z,82.76
2022-09-22T03:48:09.235Z,82.79
2022-09-22T03:49:09.230Z,82.79
2022-09-22T03:50:09.229Z,82.86
2022-09-22T03:51:09.215Z,82.90
2022-09-22T03:52:09.239Z,82.90
2022-09-22T03:53:09.189Z,82.90
2022-09-22T03:54:09.192Z,82.90
2022-09-22T03:55:09.213Z,82.90
2022-09-22T03:56:09.170Z,82.90
2022-09-22T03:57:09.179Z,82.90
2022-09-22T03:58:09.137Z,82.90
2022-09-22T03:59:09.127Z,82.90
2022-09-22T04:00:09.117Z,82.90
2022-09-22T04:01:09.145Z,82.90
2022-09-22T04:02:09.156Z,82.90
2022-09-22T04:03:09.097Z,82.90
2022-09-22T04:04:09.077Z,82.90
2022-09-22T04:05:09.076Z,82.79
2022-09-22T04:06:09.033Z,82.90
2022-09-22T04:07:09.023Z,82.90
2022-09-22T04:08:09.020Z,82.90
2022-09-22T04:09:09.021Z,82.79
2022-09-22T04:10:09.039Z,82.79
2022-09-22T04:11:08.998Z,82.79
2022-09-22T04:12:08.977Z,82.79
2022-09-22T04:13:08.970Z,82.79
2022-09-22T04:14:09.135Z,82.79
2022-09-22T04:15:08.951Z,82.70
2022-09-22T04:16:08.955Z,82.70
2022-09-22T04:17:08.995Z,82.70
2022-09-22T04:18:08.914Z,82.70
2022-09-22T04:19:08.894Z,82.70
2022-09-22T04:20:08.890Z,82.70
2022-09-22T04:21:08.906Z,82.70
2022-09-22T04:22:08.862Z,82.79
2022-09-22T04:23:08.880Z,82.79
2022-09-22T04:24:08.844Z,82.79
2022-09-22T04:25:08.832Z,82.79
2022-09-22T04:26:08.823Z,82.79
2022-09-22T04:27:19.427Z,82.79
2022-09-22T04:28:09.798Z,82.79
2022-09-22T04:29:08.877Z,82.79
2022-09-22T04:30:08.782Z,82.79
2022-09-22T04:31:08.826Z,82.79
2022-09-22T04:32:08.759Z,82.79
2022-09-22T04:33:08.868Z,82.79
2022-09-22T04:34:08.724Z,82.90
2022-09-22T04:35:08.713Z,82.90
2022-09-22T04:36:08.721Z,82.90
2022-09-22T04:37:08.694Z,83.00
2022-09-22T04:38:08.685Z,83.00
2022-09-22T04:39:08.661Z,83.00
2022-09-22T04:40:08.742Z,82.90
2022-09-22T04:41:08.657Z,83.00
2022-09-22T04:42:08.690Z,83.00
2022-09-22T04:43:08.652Z,83.00
2022-09-22T04:44:08.688Z,82.90
2022-09-22T04:45:08.602Z,82.90
2022-09-22T04:46:08.678Z,82.90
2022-09-22T04:47:08.571Z,82.90
2022-09-22T04:48:08.581Z,82.90
2022-09-22T04:49:08.721Z,82.90
2022-09-22T04:50:08.560Z,82.90
2022-09-22T04:51:08.583Z,82.90
2022-09-22T04:52:08.535Z,82.90
2022-09-22T04:53:08.549Z,82.90
2022-09-22T04:54:08.502Z,82.79
2022-09-22T04:55:08.501Z,82.90
2022-09-22T04:56:08.504Z,82.90
2022-09-22T04:57:08.472Z,82.90
2022-09-22T04:58:08.461Z,83.00
2022-09-22T04:59:08.549Z,83.00
2022-09-22T05:00:08.442Z,83.00
2022-09-22T05:01:08.470Z,83.00
2022-09-22T05:02:08.460Z,83.00
2022-09-22T05:03:08.424Z,83.10
2022-09-22T05:04:08.390Z,83.10
2022-09-22T05:05:08.403Z,83.10
2022-09-22T05:06:08.400Z,83.10
2022-09-22T05:07:08.361Z,83.10
2022-09-22T05:08:08.376Z,83.10
2022-09-22T05:09:08.372Z,83.10
2022-09-22T05:10:08.344Z,83.10
2022-09-22T05:11:08.300Z,83.10
2022-09-22T05:12:08.343Z,83.10
2022-09-22T05:13:08.303Z,83.10
2022-09-22T05:14:08.407Z,83.10
2022-09-22T05:15:08.290Z,83.10
2022-09-22T05:16:08.307Z,83.10
2022-09-22T05:17:08.280Z,83.10
2022-09-22T05:18:08.238Z,83.10
2022-09-22T05:19:08.229Z,83.10
2022-09-22T05:20:08.209Z,83.10
2022-09-22T05:21:08.192Z,83.10
2022-09-22T05:22:08.282Z,83.10
2022-09-22T05:23:08.192Z,83.10
2022-09-22T05:24:08.193Z,83.00
2022-09-22T05:25:08.200Z,83.00
2022-09-22T05:26:08.151Z,83.00
2022-09-22T05:27:08.131Z,83.10
2022-09-22T05:28:08.145Z,83.00
2022-09-22T05:29:08.217Z,83.00
2022-09-22T05:30:08.133Z,83.10
2022-09-22T05:31:08.095Z,83.10
2022-09-22T05:32:08.100Z,83.10
2022-09-22T05:33:08.057Z,83.10
2022-09-22T05:34:08.069Z,83.10
2022-09-22T05:35:08.067Z,83.10
2022-09-22T05:36:08.050Z,83.10
2022-09-22T05:37:08.023Z,83.10
2022-09-22T05:38:08.009Z,83.10
2022-09-22T05:39:07.997Z,83.10
2022-09-22T05:40:08.060Z,83.10
2022-09-22T05:41:07.999Z,83.10
2022-09-22T05:42:10.996Z,83.10
2022-09-22T05:43:07.955Z,83.10
2022-09-22T05:44:08.051Z,83.10
2022-09-22T05:45:07.968Z,83.10
2022-09-22T05:46:08.108Z,83.10
2022-09-22T05:47:07.912Z,83.10
2022-09-22T05:48:07.959Z,83.10
2022-09-22T05:49:07.899Z,83.10
2022-09-22T05:50:07.890Z,83.10
2022-09-22T05:51:07.864Z,83.10
2022-09-22T05:52:07.882Z,83.10
2022-09-22T05:53:07.846Z,83.10
2022-09-22T05:54:07.879Z,83.10
2022-09-22T05:55:07.842Z,83.10
2022-09-22T05:56:07.827Z,83.10
2022-09-22T05:57:07.802Z,83.10
2022-09-22T05:58:07.833Z,83.10
2022-09-22T05:59:07.777Z,83.10
2022-09-22T06:00:07.786Z,83.10
2022-09-22T06:01:07.808Z,83.10
2022-09-22T06:02:23.705Z,83.10
2022-09-22T06:03:08.798Z,83.00
2022-09-22T06:04:07.759Z,83.00
2022-09-22T06:05:07.740Z,83.00
2022-09-22T06:06:07.720Z,83.00
2022-09-22T06:07:07.688Z,83.00
2022-09-22T06:08:07.707Z,82.90
2022-09-22T06:09:07.737Z,83.00
2022-09-22T06:10:07.700Z,82.90
2022-09-22T06:11:07.676Z,82.90
2022-09-22T06:12:07.635Z,82.90
2022-09-22T06:13:07.624Z,82.90
2022-09-22T06:14:07.650Z,82.90
2022-09-22T06:15:07.627Z,82.90
2022-09-22T06:16:07.646Z,83.00
2022-09-22T06:17:07.614Z,83.00
2022-09-22T06:18:07.749Z,83.00
2022-09-22T06:19:07.562Z,83.00
2022-09-22T06:20:07.543Z,82.90
2022-09-22T06:21:07.587Z,82.90
2022-09-22T06:22:07.614Z,82.90
2022-09-22T06:23:07.522Z,82.90
2022-09-22T06:24:07.510Z,82.90
2022-09-22T06:25:07.524Z,82.90
2022-09-22T06:26:07.496Z,82.90
2022-09-22T06:27:07.472Z,82.90
2022-09-22T06:28:07.498Z,82.90
2022-09-22T06:29:07.502Z,82.90
2022-09-22T06:30:07.482Z,82.90
2022-09-22T06:31:07.414Z,82.90
2022-09-22T06:32:07.501Z,83.00
2022-09-22T06:33:07.436Z,83.00
2022-09-22T06:34:07.798Z,83.00
2022-09-22T06:35:07.395Z,83.00
2022-09-22T06:36:07.375Z,83.00
2022-09-22T06:37:07.374Z,83.00
2022-09-22T06:38:07.392Z,83.00
2022-09-22T06:39:07.397Z,82.90
2022-09-22T06:40:07.334Z,82.90
2022-09-22T06:41:07.372Z,82.90
2022-09-22T06:42:07.301Z,82.90
2022-09-22T06:43:07.302Z,82.90
2022-09-22T06:44:07.280Z,82.90
2022-09-22T06:45:07.271Z,82.90
2022-09-22T06:46:07.334Z,82.90
2022-09-22T06:47:07.248Z,82.90
2022-09-22T06:48:10.087Z,82.90
2022-09-22T06:49:07.232Z,82.90
2022-09-22T06:50:07.206Z,82.90
2022-09-22T06:51:07.320Z,83.00
2022-09-22T06:52:07.213Z,83.00
2022-09-22T06:53:07.205Z,83.00
2022-09-22T06:54:07.260Z,83.00
2022-09-22T06:55:07.176Z,83.00
2022-09-22T06:56:07.159Z,83.10
2022-09-22T06:57:07.180Z,83.10
2022-09-22T06:58:07.156Z,83.00
2022-09-22T06:59:10.340Z,83.10
2022-09-22T07:00:07.189Z,83.10
2022-09-22T07:01:09.814Z,83.10
2022-09-22T07:02:07.227Z,83.10
2022-09-22T07:03:07.069Z,83.10
2022-09-22T07:04:07.100Z,83.10
2022-09-22T07:05:07.040Z,83.10
2022-09-22T07:06:07.064Z,83.10
2022-09-22T07:07:07.064Z,83.10
2022-09-22T07:08:07.052Z,83.20
2022-09-22T07:09:07.087Z,83.20
2022-09-22T07:10:07.043Z,83.20
2022-09-22T07:11:07.002Z,83.20
2022-09-22T07:12:07.001Z,83.30
2022-09-22T07:13:06.994Z,83.30
2022-09-22T07:14:06.956Z,83.30
2022-09-22T07:15:06.957Z,83.30
2022-09-22T07:16:07.018Z,83.40
2022-09-22T07:17:06.930Z,83.40
2022-09-22T07:18:06.942Z,83.40
2022-09-22T07:19:06.934Z,83.50
2022-09-22T07:20:06.898Z,83.50
2022-09-22T07:21:06.873Z,83.40
2022-09-22T07:22:06.878Z,83.40
2022-09-22T07:23:06.856Z,83.40
2022-09-22T07:24:06.950Z,83.40
2022-09-22T07:25:06.936Z,83.40
2022-09-22T07:26:06.831Z,83.40
2022-09-22T07:27:06.819Z,83.40
2022-09-22T07:28:06.819Z,83.50
2022-09-22T07:29:06.839Z,83.50
2022-09-22T07:30:06.784Z,83.50
2022-09-22T07:31:06.908Z,83.50
2022-09-22T07:32:06.826Z,83.50
2022-09-22T07:33:06.763Z,83.60
2022-09-22T07:34:06.733Z,83.60
2022-09-22T07:35:06.729Z,83.60
2022-09-22T07:36:06.780Z,83.70
2022-09-22T07:37:06.708Z,83.60
2022-09-22T07:38:06.742Z,83.60
2022-09-22T07:39:06.785Z,83.70
2022-09-22T07:40:06.723Z,83.60
2022-09-22T07:41:06.708Z,83.70
2022-09-22T07:42:06.678Z,83.70
2022-09-22T07:43:06.688Z,83.70
2022-09-22T07:44:06.659Z,83.70
2022-09-22T07:45:06.626Z,83.80
2022-09-22T07:46:06.618Z,83.80
2022-09-22T07:47:06.595Z,83.91
2022-09-22T07:48:06.584Z,83.91
2022-09-22T07:49:06.575Z,83.91
2022-09-22T07:50:06.577Z,83.91
2022-09-22T07:51:06.563Z,83.91
2022-09-22T07:52:06.556Z,84.01
2022-09-22T07:53:06.526Z,84.01
2022-09-22T07:54:06.724Z,84.01
2022-09-22T07:55:06.549Z,84.01
2022-09-22T07:56:07.222Z,84.11
2022-09-22T07:57:06.574Z,84.11
2022-09-22T07:58:06.480Z,83.97
2022-09-22T07:59:06.687Z,84.07
2022-09-22T08:00:06.456Z,84.07
2022-09-22T08:01:06.553Z,84.07
2022-09-22T08:02:06.489Z,84.07
2022-09-22T08:03:06.421Z,84.07
2022-09-22T08:04:06.398Z,84.07
2022-09-22T08:05:06.387Z,84.07
2022-09-22T08:06:06.428Z,84.17
2022-09-22T08:07:06.393Z,84.17
2022-09-22T08:08:06.412Z,84.17
2022-09-22T08:09:06.395Z,84.17
2022-09-22T08:10:06.497Z,84.17
2022-09-22T08:11:06.334Z,84.27
2022-09-22T08:12:06.326Z,84.27
2022-09-22T08:13:06.303Z,84.27
2022-09-22T08:14:06.350Z,84.27
2022-09-22T08:15:06.270Z,84.27
2022-09-22T08:16:06.340Z,84.27
2022-09-22T08:17:06.318Z,84.27
2022-09-22T08:18:06.265Z,84.27
2022-09-22T08:19:06.234Z,84.27
2022-09-22T08:20:06.352Z,84.37
2022-09-22T08:21:06.224Z,84.37
2022-09-22T08:22:06.230Z,84.37
2022-09-22T08:23:06.269Z,84.47
2022-09-22T08:24:06.291Z,84.47
2022-09-22T08:25:06.183Z,84.47
2022-09-22T08:26:06.190Z,84.47
2022-09-22T08:27:06.164Z,84.47
2022-09-22T08:28:06.150Z,84.47
2022-09-22T08:29:06.169Z,84.47
2022-09-22T08:30:06.195Z,84.57
2022-09-22T08:31:06.137Z,84.67
2022-09-22T08:32:06.234Z,84.67
2022-09-22T08:33:06.093Z,84.67
2022-09-22T08:34:06.092Z,84.67
2022-09-22T08:35:06.060Z,84.67
2022-09-22T08:36:06.794Z,84.67
2022-09-22T08:37:06.052Z,84.67
2022-09-22T08:38:10.574Z,84.63
2022-09-22T08:39:07.135Z,84.63
2022-09-22T08:40:06.123Z,84.63
2022-09-22T08:41:06.011Z,84.63
2022-09-22T08:42:06.078Z,84.74
2022-09-22T08:43:06.066Z,84.74
2022-09-22T08:44:06.422Z,84.63
2022-09-22T08:45:06.062Z,84.63
2022-09-22T08:46:05.981Z,84.63
2022-09-22T08:47:06.032Z,84.63
2022-09-22T08:48:05.921Z,84.63
2022-09-22T08:49:06.112Z,84.63
2022-09-22T08:50:05.939Z,84.53
2022-09-22T08:51:06.749Z,84.63
2022-09-22T08:52:08.534Z,84.63
2022-09-22T08:53:05.889Z,84.74
2022-09-22T08:54:06.010Z,84.74
2022-09-22T08:55:05.856Z,84.74
2022-09-22T08:56:05.866Z,84.74
2022-09-22T08:57:05.817Z,84.74
2022-09-22T08:58:05.901Z,84.74
2022-09-22T08:59:05.814Z,84.74
2022-09-22T09:00:05.784Z,84.63
2022-09-22T09:01:05.827Z,84.63
2022-09-22T09:02:05.876Z,84.63
2022-09-22T09:03:05.843Z,84.53
2022-09-22T09:04:05.895Z,84.43
2022-09-22T09:05:05.743Z,84.43
2022-09-22T09:06:05.749Z,84.33
2022-09-22T09:07:05.751Z,84.23
2022-09-22T09:08:05.680Z,84.23
2022-09-22T09:09:05.805Z,84.03
2022-09-22T09:10:05.699Z,84.03
2022-09-22T09:11:05.806Z,83.93
2022-09-22T09:12:05.970Z,83.93
2022-09-22T09:13:06.088Z,83.93
2022-09-22T09:14:05.832Z,83.83
2022-09-22T09:15:05.729Z,83.83
2022-09-22T09:16:05.695Z,83.83
2022-09-22T09:17:05.784Z,83.76
2022-09-22T09:18:05.595Z,83.66
2022-09-22T09:19:05.598Z,83.66
2022-09-22T09:20:05.570Z,83.66
2022-09-22T09:21:05.543Z,83.56
2022-09-22T09:22:05.524Z,83.56
2022-09-22T09:23:05.618Z,83.56
2022-09-22T09:25:23.003Z,83.36
2022-09-22T09:26:06.494Z,83.26
2022-09-22T09:27:05.475Z,83.16
2022-09-22T09:28:05.506Z,83.16
2022-09-22T09:29:05.681Z,83.06
2022-09-22T09:30:05.448Z,82.96
2022-09-22T09:31:05.467Z,82.86
2022-09-22T09:32:05.438Z,82.86
2022-09-22T09:33:05.425Z,82.76
2022-09-22T09:34:05.427Z,82.65
2022-09-22T09:36:05.438Z,82.56
2022-09-22T09:37:05.377Z,82.45
2022-09-22T09:38:05.355Z,82.35
2022-09-22T09:39:05.456Z,82.25
2022-09-22T09:40:05.383Z,82.15
2022-09-22T09:41:05.356Z,82.15
2022-09-22T09:42:05.353Z,82.05
2022-09-22T09:43:05.716Z,81.85
2022-09-22T09:44:05.320Z,81.61
2022-09-22T09:45:05.295Z,81.45
2022-09-22T09:46:05.339Z,81.24
2022-09-22T09:47:05.265Z,81.15
2022-09-22T09:48:05.256Z,80.90
2022-09-22T09:49:05.962Z,80.60
2022-09-22T09:50:05.266Z,80.33
2022-09-22T09:51:05.236Z,80.00
2022-09-22T09:52:05.459Z,79.90
2022-09-22T09:53:08.507Z,79.80
2022-09-22T09:54:05.428Z,79.80
2022-09-22T09:55:05.258Z,79.69
2022-09-22T09:56:05.192Z,79.69
2022-09-22T09:57:05.219Z,79.60
2022-09-22T09:58:05.176Z,79.49
2022-09-22T09:59:05.248Z,79.49
2022-09-22T10:00:05.175Z,79.39
2022-09-22T10:01:05.496Z,79.39
2022-09-22T10:02:05.114Z,79.29
2022-09-22T10:03:05.115Z,79.29
2022-09-22T10:04:05.180Z,79.19
2022-09-22T10:05:05.102Z,79.09
2022-09-22T10:06:05.038Z,78.99
2022-09-22T10:07:05.049Z,78.99
2022-09-22T10:08:05.020Z,78.79
2022-09-22T10:09:05.186Z,78.69
2022-09-22T10:10:05.112Z,78.69
2022-09-22T10:11:05.024Z,78.59
2022-09-22T10:12:05.003Z,78.39
2022-09-22T10:13:04.986Z,78.19
2022-09-22T10:14:04.985Z,78.19
2022-09-22T10:15:05.044Z,78.19
2022-09-22T10:16:04.973Z,78.28
2022-09-22T10:17:04.935Z,78.28
2022-09-22T10:18:04.916Z,78.28
2022-09-22T10:19:04.937Z,78.19
2022-09-22T10:20:05.593Z,78.15
2022-09-22T10:21:04.879Z,78.05
2022-09-22T10:22:04.917Z,78.05
2022-09-22T10:23:04.888Z,78.05
2022-09-22T10:24:04.867Z,77.95
2022-09-22T10:25:05.513Z,77.84
2022-09-22T10:26:04.839Z,77.75
2022-09-22T10:27:06.848Z,77.75
2022-09-22T10:28:04.853Z,77.64
2022-09-22T10:29:04.783Z,77.55
2022-09-22T10:30:05.001Z,77.34
2022-09-22T10:31:04.892Z,77.24
2022-09-22T10:32:04.792Z,77.24
2022-09-22T10:33:04.966Z,77.14
2022-09-22T10:34:04.739Z,77.24
2022-09-22T10:35:04.769Z,77.14
2022-09-22T10:36:07.834Z,77.14
2022-09-22T10:37:05.997Z,77.04
2022-09-22T10:38:04.688Z,76.94
2022-09-22T10:39:04.731Z,77.04
2022-09-22T10:40:04.719Z,76.94
2022-09-22T10:41:04.704Z,76.94
2022-09-22T10:42:04.691Z,76.84
2022-09-22T10:43:04.681Z,76.74
2022-09-22T10:44:21.254Z,76.64
2022-09-22T10:45:05.680Z,76.43
2022-09-22T10:46:04.661Z,76.54
2022-09-22T10:47:04.606Z,76.54
2022-09-22T10:48:04.620Z,76.43
2022-09-22T10:49:04.795Z,76.54
2022-09-22T10:50:04.578Z,76.43
2022-09-22T10:51:04.696Z,76.34
2022-09-22T10:52:04.548Z,76.34
2022-09-22T10:53:04.567Z,76.34
2022-09-22T10:54:04.550Z,76.34
2022-09-22T10:55:04.560Z,76.34
2022-09-22T10:56:04.521Z,76.14
2022-09-22T10:57:04.487Z,76.14
2022-09-22T10:58:04.472Z,75.93
2022-09-22T10:59:04.477Z,75.83
2022-09-22T11:00:04.538Z,75.63
2022-09-22T11:01:04.486Z,75.63
2022-09-22T11:02:04.449Z,75.83
2022-09-22T11:03:04.428Z,75.83
2022-09-22T11:04:04.487Z,75.83
2022-09-22T11:05:04.438Z,75.83
2022-09-22T11:06:04.386Z,75.83
2022-09-22T11:07:04.390Z,75.70
2022-09-22T11:08:04.366Z,75.70
2022-09-22T11:09:04.393Z,75.59
2022-09-22T11:10:04.352Z,75.49
2022-09-22T11:11:04.334Z,75.39
2022-09-22T11:12:04.436Z,75.39
2022-09-22T11:13:04.339Z,75.29
2022-09-22T11:14:04.320Z,75.29
2022-09-22T11:15:04.336Z,75.09
2022-09-22T11:16:04.322Z,75.09
2022-09-22T11:17:04.313Z,74.99
2022-09-22T11:18:04.278Z,74.99
2022-09-22T11:19:04.277Z,74.99
2022-09-22T11:20:04.255Z,74.99
2022-09-22T11:21:04.249Z,75.09
2022-09-22T11:22:04.230Z,75.09
2022-09-22T11:23:04.243Z,74.99
2022-09-22T11:24:04.265Z,74.99
2022-09-22T11:25:05.950Z,74.89
2022-09-22T11:26:04.368Z,74.93
2022-09-22T11:27:04.227Z,74.99
2022-09-22T11:28:04.287Z,75.13
2022-09-22T11:29:04.173Z,75.02
2022-09-22T11:30:10.656Z,74.93
2022-09-22T11:31:05.191Z,74.93
2022-09-22T11:32:04.436Z,74.93
2022-09-22T11:33:04.128Z,74.82
2022-09-22T11:34:04.183Z,74.73
2022-09-22T11:35:04.115Z,74.62
2022-09-22T11:36:04.585Z,74.52
2022-09-22T11:37:04.232Z,74.38
2022-09-22T11:38:04.144Z,74.38
2022-09-22T11:39:04.133Z,74.38
2022-09-22T11:40:04.091Z,74.38
2022-09-22T11:41:04.278Z,74.29
2022-09-22T11:42:04.021Z,74.18
2022-09-22T11:43:04.590Z,74.08
2022-09-22T11:44:04.126Z,73.98
2022-09-22T11:45:03.992Z,73.88
2022-09-22T11:46:04.012Z,73.78
2022-09-22T11:47:03.991Z,73.78
2022-09-22T11:48:03.958Z,73.82
2022-09-22T11:49:03.912Z,73.68
2022-09-22T11:50:03.900Z,73.72
2022-09-22T11:51:03.914Z,73.72
2022-09-22T11:52:03.928Z,73.61
2022-09-22T11:53:03.922Z,73.72
2022-09-22T11:54:04.008Z,73.72
2022-09-22T11:55:03.967Z,73.61
2022-09-22T11:56:03.840Z,73.61
2022-09-22T11:57:03.832Z,73.52
2022-09-22T11:58:03.863Z,73.52
2022-09-22T11:59:03.902Z,73.61
2022-09-22T12:00:03.833Z,73.61
2022-09-22T12:01:04.000Z,73.52
2022-09-22T12:02:03.937Z,73.32
2022-09-22T12:03:03.896Z,73.21
2022-09-22T12:04:04.075Z,73.11
2022-09-22T12:05:03.773Z,73.01
2022-09-22T12:06:03.852Z,72.91
2022-09-22T12:07:03.729Z,72.91
2022-09-22T12:08:03.849Z,72.91
2022-09-22T12:09:03.716Z,72.91
2022-09-22T12:10:03.760Z,72.91
2022-09-22T12:11:03.702Z,73.11
2022-09-22T12:12:04.102Z,73.11
2022-09-22T12:13:03.729Z,72.91
2022-09-22T12:14:03.675Z,72.91
2022-09-22T12:15:03.651Z,72.81
2022-09-22T12:17:03.610Z,72.81
2022-09-22T12:18:03.618Z,72.81
2022-09-22T12:19:03.588Z,72.71
2022-09-22T12:20:03.612Z,72.71
2022-09-22T12:21:03.580Z,72.61
2022-09-22T12:22:03.571Z,72.61
2022-09-22T12:23:03.631Z,72.51
2022-09-22T12:24:03.537Z,72.41
2022-09-22T12:25:03.563Z,72.31
2022-09-22T12:26:03.588Z,72.31
2022-09-22T12:27:03.521Z,72.20
2022-09-22T12:28:03.480Z,72.11
2022-09-22T12:29:03.520Z,72.00
2022-09-22T12:30:03.493Z,71.91
2022-09-22T12:31:03.654Z,71.80
2022-09-22T12:32:03.489Z,71.80
2022-09-22T12:33:03.444Z,71.60
2022-09-22T12:34:03.431Z,71.60
2022-09-22T12:35:03.416Z,71.50
2022-09-22T12:36:03.507Z,71.50
2022-09-22T12:37:03.416Z,71.30
2022-09-22T12:38:03.387Z,71.10
2022-09-22T12:39:03.422Z,71.10
2022-09-22T12:40:03.487Z,70.90
2022-09-22T12:41:03.497Z,70.79
2022-09-22T12:42:03.361Z,70.59
2022-09-22T12:43:03.350Z,70.50
2022-09-22T12:44:03.332Z,70.50
2022-09-22T12:45:03.314Z,70.39
2022-09-22T12:46:03.343Z,70.39
2022-09-22T12:47:03.364Z,70.29
2022-09-22T12:48:05.791Z,70.29
2022-09-22T12:49:04.269Z,70.19
2022-09-22T12:50:03.268Z,70.19
2022-09-22T12:51:03.233Z,68.38
2022-09-22T12:52:03.247Z,68.98
2022-09-22T12:53:03.258Z,68.88
2022-09-22T12:54:03.216Z,68.58
2022-09-22T12:55:03.260Z,68.38